sensor_id;sensor_type;location;lat;lon;timestamp;temperature;humidity
77839;SHT31;67034;43.226;27.932;2023-04-03T00:00:51;8.20;80.10
77839;SHT31;67034;43.226;27.932;2023-04-03T00:03:16;8.14;80.00
77839;SHT31;67034;43.226;27.932;2023-04-03T00:05:42;8.06;80.52
77839;SHT31;67034;43.226;27.932;2023-04-03T00:08:08;8.05;80.70
77839;SHT31;67034;43.226;27.932;2023-04-03T00:10:35;8.13;80.47
77839;SHT31;67034;43.226;27.932;2023-04-03T00:13:00;8.14;80.40
77839;SHT31;67034;43.226;27.932;2023-04-03T00:15:26;7.96;80.89
77839;SHT31;67034;43.226;27.932;2023-04-03T00:17:53;8.17;80.21
77839;SHT31;67034;43.226;27.932;2023-04-03T00:20:19;7.97;80.53
77839;SHT31;67034;43.226;27.932;2023-04-03T00:22:45;8.17;79.91
77839;SHT31;67034;43.226;27.932;2023-04-03T00:25:11;8.24;80.42
77839;SHT31;67034;43.226;27.932;2023-04-03T00:27:37;8.79;77.54
77839;SHT31;67034;43.226;27.932;2023-04-03T00:30:04;8.29;78.75
77839;SHT31;67034;43.226;27.932;2023-04-03T00:32:29;8.07;80.05
77839;SHT31;67034;43.226;27.932;2023-04-03T00:34:57;7.89;80.43
77839;SHT31;67034;43.226;27.932;2023-04-03T00:37:22;8.12;80.63
77839;SHT31;67034;43.226;27.932;2023-04-03T00:39:48;8.16;80.46
77839;SHT31;67034;43.226;27.932;2023-04-03T00:42:14;8.05;80.59
77839;SHT31;67034;43.226;27.932;2023-04-03T00:47:43;7.86;80.87
77839;SHT31;67034;43.226;27.932;2023-04-03T00:50:10;7.92;81.25
77839;SHT31;67034;43.226;27.932;2023-04-03T00:52:37;8.09;80.85
77839;SHT31;67034;43.226;27.932;2023-04-03T00:55:05;8.05;81.00
77839;SHT31;67034;43.226;27.932;2023-04-03T00:57:33;8.00;80.98
77839;SHT31;67034;43.226;27.932;2023-04-03T01:00:03;8.22;79.92
77839;SHT31;67034;43.226;27.932;2023-04-03T01:02:30;7.74;81.63
77839;SHT31;67034;43.226;27.932;2023-04-03T01:04:55;7.72;79.73
77839;SHT31;67034;43.226;27.932;2023-04-03T01:07:26;7.03;81.97
77839;SHT31;67034;43.226;27.932;2023-04-03T01:09:56;6.77;83.38
77839;SHT31;67034;43.226;27.932;2023-04-03T01:12:23;7.34;83.39
77839;SHT31;67034;43.226;27.932;2023-04-03T01:14:52;6.95;83.15
77839;SHT31;67034;43.226;27.932;2023-04-03T01:17:28;6.99;84.59
77839;SHT31;67034;43.226;27.932;2023-04-03T01:22:48;6.64;83.98
77839;SHT31;67034;43.226;27.932;2023-04-03T01:25:18;6.69;84.29
77839;SHT31;67034;43.226;27.932;2023-04-03T01:27:44;6.71;84.99
77839;SHT31;67034;43.226;27.932;2023-04-03T01:30:11;7.20;83.21
77839;SHT31;67034;43.226;27.932;2023-04-03T01:32:39;7.24;82.30
77839;SHT31;67034;43.226;27.932;2023-04-03T01:35:07;7.27;82.47
77839;SHT31;67034;43.226;27.932;2023-04-03T01:37:33;7.03;83.22
77839;SHT31;67034;43.226;27.932;2023-04-03T01:39:59;7.23;83.34
77839;SHT31;67034;43.226;27.932;2023-04-03T01:42:25;6.73;83.61
77839;SHT31;67034;43.226;27.932;2023-04-03T01:44:52;6.53;84.17
77839;SHT31;67034;43.226;27.932;2023-04-03T01:47:17;7.85;82.84
77839;SHT31;67034;43.226;27.932;2023-04-03T01:49:44;7.41;81.69
77839;SHT31;67034;43.226;27.932;2023-04-03T01:52:10;8.02;80.56
77839;SHT31;67034;43.226;27.932;2023-04-03T01:54:36;7.97;79.36
77839;SHT31;67034;43.226;27.932;2023-04-03T01:57:02;8.32;79.18
77839;SHT31;67034;43.226;27.932;2023-04-03T01:59:27;8.93;77.60
77839;SHT31;67034;43.226;27.932;2023-04-03T02:01:53;9.11;76.64
77839;SHT31;67034;43.226;27.932;2023-04-03T02:04:19;7.87;79.38
77839;SHT31;67034;43.226;27.932;2023-04-03T02:06:46;7.54;80.58
77839;SHT31;67034;43.226;27.932;2023-04-03T02:09:12;7.50;81.36
77839;SHT31;67034;43.226;27.932;2023-04-03T02:11:37;7.62;81.17
77839;SHT31;67034;43.226;27.932;2023-04-03T02:14:03;8.14;81.10
77839;SHT31;67034;43.226;27.932;2023-04-03T02:16:29;8.23;80.23
77839;SHT31;67034;43.226;27.932;2023-04-03T02:18:56;8.24;80.20
77839;SHT31;67034;43.226;27.932;2023-04-03T02:21:21;8.54;79.84
77839;SHT31;67034;43.226;27.932;2023-04-03T02:23:49;7.82;80.94
77839;SHT31;67034;43.226;27.932;2023-04-03T02:26:16;7.75;81.87
77839;SHT31;67034;43.226;27.932;2023-04-03T02:28:42;7.31;81.45
77839;SHT31;67034;43.226;27.932;2023-04-03T02:31:08;7.07;83.77
77839;SHT31;67034;43.226;27.932;2023-04-03T02:33:35;6.64;82.93
77839;SHT31;67034;43.226;27.932;2023-04-03T02:36:02;6.83;84.79
77839;SHT31;67034;43.226;27.932;2023-04-03T02:38:28;6.61;84.10
77839;SHT31;67034;43.226;27.932;2023-04-03T02:41:00;6.48;85.08
77839;SHT31;67034;43.226;27.932;2023-04-03T02:43:26;5.93;85.22
77839;SHT31;67034;43.226;27.932;2023-04-03T02:45:52;5.86;85.68
77839;SHT31;67034;43.226;27.932;2023-04-03T02:48:17;5.83;85.37
77839;SHT31;67034;43.226;27.932;2023-04-03T02:50:43;6.21;86.26
77839;SHT31;67034;43.226;27.932;2023-04-03T02:53:09;6.03;85.49
77839;SHT31;67034;43.226;27.932;2023-04-03T02:55:34;5.87;84.81
77839;SHT31;67034;43.226;27.932;2023-04-03T02:58:01;5.59;86.36
77839;SHT31;67034;43.226;27.932;2023-04-03T03:00:27;6.28;86.24
77839;SHT31;67034;43.226;27.932;2023-04-03T03:02:53;7.58;81.16
77839;SHT31;67034;43.226;27.932;2023-04-03T03:05:18;8.34;77.98
77839;SHT31;67034;43.226;27.932;2023-04-03T03:07:44;8.99;77.06
77839;SHT31;67034;43.226;27.932;2023-04-03T03:10:10;9.06;75.27
77839;SHT31;67034;43.226;27.932;2023-04-03T03:12:35;9.12;74.81
77839;SHT31;67034;43.226;27.932;2023-04-03T03:15:03;9.29;75.29
77839;SHT31;67034;43.226;27.932;2023-04-03T03:17:28;9.47;73.94
77839;SHT31;67034;43.226;27.932;2023-04-03T03:19:54;9.47;73.08
77839;SHT31;67034;43.226;27.932;2023-04-03T03:22:20;9.64;72.74
77839;SHT31;67034;43.226;27.932;2023-04-03T03:24:46;9.70;72.44
77839;SHT31;67034;43.226;27.932;2023-04-03T03:27:11;9.61;72.11
77839;SHT31;67034;43.226;27.932;2023-04-03T03:29:37;9.92;71.19
77839;SHT31;67034;43.226;27.932;2023-04-03T03:32:04;9.94;71.23
77839;SHT31;67034;43.226;27.932;2023-04-03T03:34:31;9.91;71.08
77839;SHT31;67034;43.226;27.932;2023-04-03T03:36:56;9.43;72.57
77839;SHT31;67034;43.226;27.932;2023-04-03T03:39:22;9.47;72.91
77839;SHT31;67034;43.226;27.932;2023-04-03T03:41:48;8.78;75.08
77839;SHT31;67034;43.226;27.932;2023-04-03T03:44:15;8.58;76.24
77839;SHT31;67034;43.226;27.932;2023-04-03T03:46:40;8.64;76.54
77839;SHT31;67034;43.226;27.932;2023-04-03T03:49:08;9.06;74.54
77839;SHT31;67034;43.226;27.932;2023-04-03T03:51:34;9.06;74.04
77839;SHT31;67034;43.226;27.932;2023-04-03T03:53:59;9.12;74.03
77839;SHT31;67034;43.226;27.932;2023-04-03T03:56:25;9.39;73.37
77839;SHT31;67034;43.226;27.932;2023-04-03T03:58:51;9.43;72.90
77839;SHT31;67034;43.226;27.932;2023-04-03T04:01:17;9.53;72.55
77839;SHT31;67034;43.226;27.932;2023-04-03T04:03:43;9.30;73.38
77839;SHT31;67034;43.226;27.932;2023-04-03T04:06:10;9.23;74.17
77839;SHT31;67034;43.226;27.932;2023-04-03T04:08:36;8.78;75.34
77839;SHT31;67034;43.226;27.932;2023-04-03T04:11:02;8.88;75.30
77839;SHT31;67034;43.226;27.932;2023-04-03T04:13:27;8.99;75.10
77839;SHT31;67034;43.226;27.932;2023-04-03T04:15:53;8.91;75.24
77839;SHT31;67034;43.226;27.932;2023-04-03T04:18:19;8.96;74.88
77839;SHT31;67034;43.226;27.932;2023-04-03T04:20:46;9.02;74.29
77839;SHT31;67034;43.226;27.932;2023-04-03T04:23:14;9.06;74.42
77839;SHT31;67034;43.226;27.932;2023-04-03T04:25:39;9.15;74.13
77839;SHT31;67034;43.226;27.932;2023-04-03T04:28:05;9.40;73.15
77839;SHT31;67034;43.226;27.932;2023-04-03T04:30:31;9.46;72.87
77839;SHT31;67034;43.226;27.932;2023-04-03T04:32:56;9.23;73.72
77839;SHT31;67034;43.226;27.932;2023-04-03T04:35:22;9.26;73.60
77839;SHT31;67034;43.226;27.932;2023-04-03T04:37:48;9.53;72.70
77839;SHT31;67034;43.226;27.932;2023-04-03T04:40:15;9.47;72.87
77839;SHT31;67034;43.226;27.932;2023-04-03T04:42:41;9.77;72.03
77839;SHT31;67034;43.226;27.932;2023-04-03T04:45:09;9.44;73.02
77839;SHT31;67034;43.226;27.932;2023-04-03T04:47:35;9.63;72.61
77839;SHT31;67034;43.226;27.932;2023-04-03T04:50:00;9.44;73.43
77839;SHT31;67034;43.226;27.932;2023-04-03T04:52:26;9.57;73.17
77839;SHT31;67034;43.226;27.932;2023-04-03T04:54:52;9.75;72.49
77839;SHT31;67034;43.226;27.932;2023-04-03T04:57:19;9.65;72.84
77839;SHT31;67034;43.226;27.932;2023-04-03T04:59:45;9.81;72.53
77839;SHT31;67034;43.226;27.932;2023-04-03T05:02:11;9.91;72.19
77839;SHT31;67034;43.226;27.932;2023-04-03T05:04:36;9.97;72.03
77839;SHT31;67034;43.226;27.932;2023-04-03T05:07:02;10.01;72.12
77839;SHT31;67034;43.226;27.932;2023-04-03T05:09:28;10.18;71.55
77839;SHT31;67034;43.226;27.932;2023-04-03T05:11:53;10.42;70.82
77839;SHT31;67034;43.226;27.932;2023-04-03T05:14:21;10.70;69.20
77839;SHT31;67034;43.226;27.932;2023-04-03T05:16:48;10.63;69.89
77839;SHT31;67034;43.226;27.932;2023-04-03T05:19:14;10.81;69.29
77839;SHT31;67034;43.226;27.932;2023-04-03T05:21:40;10.77;69.65
77839;SHT31;67034;43.226;27.932;2023-04-03T05:24:06;10.67;70.17
77839;SHT31;67034;43.226;27.932;2023-04-03T05:26:34;10.80;69.58
77839;SHT31;67034;43.226;27.932;2023-04-03T05:29:00;10.81;69.34
77839;SHT31;67034;43.226;27.932;2023-04-03T05:31:27;11.03;68.55
77839;SHT31;67034;43.226;27.932;2023-04-03T05:33:55;11.18;67.84
77839;SHT31;67034;43.226;27.932;2023-04-03T05:36:21;11.07;68.26
77839;SHT31;67034;43.226;27.932;2023-04-03T05:38:47;10.77;69.15
77839;SHT31;67034;43.226;27.932;2023-04-03T05:41:13;10.98;68.42
77839;SHT31;67034;43.226;27.932;2023-04-03T05:43:38;11.25;68.18
77839;SHT31;67034;43.226;27.932;2023-04-03T05:46:08;11.40;67.62
77839;SHT31;67034;43.226;27.932;2023-04-03T05:48:36;11.38;67.68
77839;SHT31;67034;43.226;27.932;2023-04-03T05:51:02;11.45;67.65
77839;SHT31;67034;43.226;27.932;2023-04-03T05:53:33;11.73;66.80
77839;SHT31;67034;43.226;27.932;2023-04-03T05:56:01;11.86;66.17
77839;SHT31;67034;43.226;27.932;2023-04-03T05:58:27;11.86;66.17
77839;SHT31;67034;43.226;27.932;2023-04-03T06:00:52;11.94;66.70
77839;SHT31;67034;43.226;27.932;2023-04-03T06:03:18;12.16;66.40
77839;SHT31;67034;43.226;27.932;2023-04-03T06:05:45;12.14;66.65
77839;SHT31;67034;43.226;27.932;2023-04-03T06:08:11;12.61;65.12
77839;SHT31;67034;43.226;27.932;2023-04-03T06:10:38;12.38;66.36
77839;SHT31;67034;43.226;27.932;2023-04-03T06:13:04;12.28;66.57
77839;SHT31;67034;43.226;27.932;2023-04-03T06:15:30;12.31;66.86
77839;SHT31;67034;43.226;27.932;2023-04-03T06:17:55;12.73;65.78
77839;SHT31;67034;43.226;27.932;2023-04-03T06:20:21;12.99;64.78
77839;SHT31;67034;43.226;27.932;2023-04-03T06:22:49;13.13;64.73
77839;SHT31;67034;43.226;27.932;2023-04-03T06:25:14;13.34;64.53
77839;SHT31;67034;43.226;27.932;2023-04-03T06:27:43;12.89;65.01
77839;SHT31;67034;43.226;27.932;2023-04-03T06:30:09;13.27;63.96
77839;SHT31;67034;43.226;27.932;2023-04-03T06:32:34;13.27;64.69
77839;SHT31;67034;43.226;27.932;2023-04-03T06:35:00;13.51;63.96
77839;SHT31;67034;43.226;27.932;2023-04-03T06:37:26;13.55;62.77
77839;SHT31;67034;43.226;27.932;2023-04-03T06:39:55;13.86;61.78
77839;SHT31;67034;43.226;27.932;2023-04-03T06:42:21;14.01;61.22
77839;SHT31;67034;43.226;27.932;2023-04-03T06:44:46;14.12;60.82
77839;SHT31;67034;43.226;27.932;2023-04-03T06:47:13;14.22;60.67
77839;SHT31;67034;43.226;27.932;2023-04-03T06:49:39;14.25;60.24
77839;SHT31;67034;43.226;27.932;2023-04-03T06:52:05;13.40;63.07
77839;SHT31;67034;43.226;27.932;2023-04-03T06:54:30;13.58;62.82
77839;SHT31;67034;43.226;27.932;2023-04-03T06:56:58;13.83;62.46
77839;SHT31;67034;43.226;27.932;2023-04-03T06:59:24;13.98;61.97
77839;SHT31;67034;43.226;27.932;2023-04-03T07:01:50;13.64;63.24
77839;SHT31;67034;43.226;27.932;2023-04-03T07:04:16;14.04;62.35
77839;SHT31;67034;43.226;27.932;2023-04-03T07:06:42;14.28;61.54
77839;SHT31;67034;43.226;27.932;2023-04-03T07:09:08;14.46;61.41
77839;SHT31;67034;43.226;27.932;2023-04-03T07:11:34;14.43;61.28
77839;SHT31;67034;43.226;27.932;2023-04-03T07:14:01;14.56;61.04
77839;SHT31;67034;43.226;27.932;2023-04-03T07:16:27;14.64;60.76
77839;SHT31;67034;43.226;27.932;2023-04-03T07:18:53;14.73;60.97
77839;SHT31;67034;43.226;27.932;2023-04-03T07:21:19;14.95;60.65
77839;SHT31;67034;43.226;27.932;2023-04-03T07:23:44;15.07;60.05
77839;SHT31;67034;43.226;27.932;2023-04-03T07:26:10;15.07;60.23
77839;SHT31;67034;43.226;27.932;2023-04-03T07:28:36;15.09;60.48
77839;SHT31;67034;43.226;27.932;2023-04-03T07:31:04;15.24;60.27
77839;SHT31;67034;43.226;27.932;2023-04-03T07:33:31;15.24;59.91
77839;SHT31;67034;43.226;27.932;2023-04-03T07:35:57;15.18;60.07
77839;SHT31;67034;43.226;27.932;2023-04-03T07:38:23;15.36;59.65
77839;SHT31;67034;43.226;27.932;2023-04-03T07:40:51;15.45;59.81
77839;SHT31;67034;43.226;27.932;2023-04-03T07:43:18;15.82;56.36
77839;SHT31;67034;43.226;27.932;2023-04-03T07:45:46;15.73;55.83
77839;SHT31;67034;43.226;27.932;2023-04-03T07:48:14;15.62;56.60
77839;SHT31;67034;43.226;27.932;2023-04-03T07:50:40;15.66;57.48
77839;SHT31;67034;43.226;27.932;2023-04-03T07:53:06;15.73;55.47
77839;SHT31;67034;43.226;27.932;2023-04-03T07:55:33;15.74;55.66
77839;SHT31;67034;43.226;27.932;2023-04-03T07:57:59;15.76;55.74
77839;SHT31;67034;43.226;27.932;2023-04-03T08:00:25;15.76;55.76
77839;SHT31;67034;43.226;27.932;2023-04-03T08:02:51;15.65;55.85
77839;SHT31;67034;43.226;27.932;2023-04-03T08:05:19;15.71;56.80
77839;SHT31;67034;43.226;27.932;2023-04-03T08:07:48;15.69;56.57
77839;SHT31;67034;43.226;27.932;2023-04-03T08:10:15;15.52;56.67
77839;SHT31;67034;43.226;27.932;2023-04-03T08:12:40;15.35;57.15
77839;SHT31;67034;43.226;27.932;2023-04-03T08:15:08;15.66;57.06
77839;SHT31;67034;43.226;27.932;2023-04-03T08:17:33;15.90;56.38
77839;SHT31;67034;43.226;27.932;2023-04-03T08:20:00;15.98;56.32
77839;SHT31;67034;43.226;27.932;2023-04-03T08:22:27;16.11;55.62
77839;SHT31;67034;43.226;27.932;2023-04-03T08:24:53;16.21;55.86
77839;SHT31;67034;43.226;27.932;2023-04-03T08:27:19;16.20;55.32
77839;SHT31;67034;43.226;27.932;2023-04-03T08:29:44;16.29;55.36
77839;SHT31;67034;43.226;27.932;2023-04-03T08:32:11;16.15;55.56
77839;SHT31;67034;43.226;27.932;2023-04-03T08:34:36;16.13;55.51
77839;SHT31;67034;43.226;27.932;2023-04-03T08:37:05;16.28;55.96
77839;SHT31;67034;43.226;27.932;2023-04-03T08:39:32;16.38;55.63
77839;SHT31;67034;43.226;27.932;2023-04-03T08:41:59;16.40;56.30
77839;SHT31;67034;43.226;27.932;2023-04-03T08:44:38;16.49;55.88
77839;SHT31;67034;43.226;27.932;2023-04-03T08:47:11;16.45;56.10
77839;SHT31;67034;43.226;27.932;2023-04-03T08:49:40;16.38;56.78
77839;SHT31;67034;43.226;27.932;2023-04-03T08:52:14;16.36;57.09
77839;SHT31;67034;43.226;27.932;2023-04-03T08:54:49;16.36;57.49
77839;SHT31;67034;43.226;27.932;2023-04-03T08:57:17;16.01;58.05
77839;SHT31;67034;43.226;27.932;2023-04-03T08:59:47;15.55;59.66
77839;SHT31;67034;43.226;27.932;2023-04-03T09:02:23;15.43;60.64
77839;SHT31;67034;43.226;27.932;2023-04-03T09:04:49;15.73;60.16
77839;SHT31;67034;43.226;27.932;2023-04-03T09:07:22;15.70;60.35
77839;SHT31;67034;43.226;27.932;2023-04-03T09:09:52;15.63;61.04
77839;SHT31;67034;43.226;27.932;2023-04-03T09:12:23;15.82;60.66
77839;SHT31;67034;43.226;27.932;2023-04-03T09:14:54;15.79;60.58
77839;SHT31;67034;43.226;27.932;2023-04-03T09:17:32;15.57;61.25
77839;SHT31;67034;43.226;27.932;2023-04-03T09:20:09;15.39;62.31
77839;SHT31;67034;43.226;27.932;2023-04-03T09:22:38;15.52;62.28
77839;SHT31;67034;43.226;27.932;2023-04-03T09:25:13;15.62;62.51
77839;SHT31;67034;43.226;27.932;2023-04-03T09:27:39;15.97;62.27
77839;SHT31;67034;43.226;27.932;2023-04-03T09:30:11;16.49;60.69
77839;SHT31;67034;43.226;27.932;2023-04-03T09:32:38;16.90;59.36
77839;SHT31;67034;43.226;27.932;2023-04-03T09:35:06;17.06;58.51
77839;SHT31;67034;43.226;27.932;2023-04-03T09:37:42;17.27;58.62
77839;SHT31;67034;43.226;27.932;2023-04-03T09:40:29;17.35;58.20
77839;SHT31;67034;43.226;27.932;2023-04-03T09:42:56;16.93;59.54
77839;SHT31;67034;43.226;27.932;2023-04-03T09:45:24;16.75;60.30
77839;SHT31;67034;43.226;27.932;2023-04-03T09:48:04;16.90;59.70
77839;SHT31;67034;43.226;27.932;2023-04-03T09:50:30;17.13;59.65
77839;SHT31;67034;43.226;27.932;2023-04-03T09:52:56;17.31;58.57
77839;SHT31;67034;43.226;27.932;2023-04-03T09:55:23;17.31;57.55
77839;SHT31;67034;43.226;27.932;2023-04-03T09:57:57;17.37;57.42
77839;SHT31;67034;43.226;27.932;2023-04-03T10:00:25;17.24;56.69
77839;SHT31;67034;43.226;27.932;2023-04-03T10:02:53;16.68;58.14
77839;SHT31;67034;43.226;27.932;2023-04-03T10:05:29;16.65;58.97
77839;SHT31;67034;43.226;27.932;2023-04-03T10:08:20;16.68;59.10
77839;SHT31;67034;43.226;27.932;2023-04-03T10:10:48;16.83;58.53
77839;SHT31;67034;43.226;27.932;2023-04-03T10:13:32;17.02;58.02
77839;SHT31;67034;43.226;27.932;2023-04-03T10:16:03;17.04;57.73
77839;SHT31;67034;43.226;27.932;2023-04-03T10:18:32;17.02;57.40
77839;SHT31;67034;43.226;27.932;2023-04-03T10:21:06;17.03;56.55
77839;SHT31;67034;43.226;27.932;2023-04-03T10:23:40;16.80;58.50
77839;SHT31;67034;43.226;27.932;2023-04-03T10:26:14;16.99;57.40
77839;SHT31;67034;43.226;27.932;2023-04-03T10:28:47;17.20;56.77
77839;SHT31;67034;43.226;27.932;2023-04-03T10:31:19;17.31;55.02
77839;SHT31;67034;43.226;27.932;2023-04-03T10:33:53;16.97;56.30
77839;SHT31;67034;43.226;27.932;2023-04-03T10:36:29;16.96;55.76
77839;SHT31;67034;43.226;27.932;2023-04-03T10:39:02;16.94;56.64
77839;SHT31;67034;43.226;27.932;2023-04-03T10:41:37;17.00;57.12
77839;SHT31;67034;43.226;27.932;2023-04-03T10:44:14;17.28;56.52
77839;SHT31;67034;43.226;27.932;2023-04-03T10:46:44;17.02;55.99
77839;SHT31;67034;43.226;27.932;2023-04-03T10:49:22;17.20;56.65
77839;SHT31;67034;43.226;27.932;2023-04-03T10:51:56;17.31;56.44
77839;SHT31;67034;43.226;27.932;2023-04-03T10:54:25;17.65;55.90
77839;SHT31;67034;43.226;27.932;2023-04-03T10:56:54;17.85;54.93
77839;SHT31;67034;43.226;27.932;2023-04-03T10:59:26;18.00;53.93
77839;SHT31;67034;43.226;27.932;2023-04-03T11:01:56;18.36;53.04
77839;SHT31;67034;43.226;27.932;2023-04-03T11:04:26;18.26;52.70
77839;SHT31;67034;43.226;27.932;2023-04-03T11:06:56;18.09;52.94
77839;SHT31;67034;43.226;27.932;2023-04-03T11:09:26;17.74;54.25
77839;SHT31;67034;43.226;27.932;2023-04-03T11:11:55;17.40;53.94
77839;SHT31;67034;43.226;27.932;2023-04-03T11:14:27;17.44;53.73
77839;SHT31;67034;43.226;27.932;2023-04-03T11:17:02;16.96;54.87
77839;SHT31;67034;43.226;27.932;2023-04-03T11:19:34;17.52;55.12
77839;SHT31;67034;43.226;27.932;2023-04-03T11:22:08;16.99;54.96
77839;SHT31;67034;43.226;27.932;2023-04-03T11:24:36;16.92;54.36
77839;SHT31;67034;43.226;27.932;2023-04-03T11:27:04;17.44;53.67
77839;SHT31;67034;43.226;27.932;2023-04-03T11:29:34;16.89;55.12
77839;SHT31;67034;43.226;27.932;2023-04-03T11:32:11;17.41;55.50
77839;SHT31;67034;43.226;27.932;2023-04-03T11:34:45;17.00;54.33
77839;SHT31;67034;43.226;27.932;2023-04-03T11:37:17;17.17;54.55
77839;SHT31;67034;43.226;27.932;2023-04-03T11:39:51;16.97;54.31
77839;SHT31;67034;43.226;27.932;2023-04-03T11:42:25;17.27;55.35
77839;SHT31;67034;43.226;27.932;2023-04-03T11:45:24;17.79;52.98
77839;SHT31;67034;43.226;27.932;2023-04-03T11:47:53;17.72;52.39
77839;SHT31;67034;43.226;27.932;2023-04-03T11:50:32;17.92;51.29
77839;SHT31;67034;43.226;27.932;2023-04-03T11:53:30;17.77;52.12
77839;SHT31;67034;43.226;27.932;2023-04-03T11:56:28;17.92;51.79
77839;SHT31;67034;43.226;27.932;2023-04-03T11:59:15;18.39;51.12
77839;SHT31;67034;43.226;27.932;2023-04-03T12:01:46;18.71;50.39
77839;SHT31;67034;43.226;27.932;2023-04-03T12:04:13;18.10;51.05
77839;SHT31;67034;43.226;27.932;2023-04-03T12:12:35;18.53;51.23
77839;SHT31;67034;43.226;27.932;2023-04-03T12:21:19;17.86;52.02
77839;SHT31;67034;43.226;27.932;2023-04-03T12:24:00;17.44;53.19
77839;SHT31;67034;43.226;27.932;2023-04-03T12:26:32;17.57;53.05
77839;SHT31;67034;43.226;27.932;2023-04-03T12:29:02;16.82;54.42
77839;SHT31;67034;43.226;27.932;2023-04-03T12:31:41;16.56;55.92
77839;SHT31;67034;43.226;27.932;2023-04-03T12:34:26;16.58;55.63
77839;SHT31;67034;43.226;27.932;2023-04-03T12:37:03;16.03;57.38
77839;SHT31;67034;43.226;27.932;2023-04-03T12:39:44;16.45;56.06
77839;SHT31;67034;43.226;27.932;2023-04-03T12:42:43;16.58;56.47
77839;SHT31;67034;43.226;27.932;2023-04-03T12:45:17;16.71;55.94
77839;SHT31;67034;43.226;27.932;2023-04-03T12:47:45;17.13;55.70
77839;SHT31;67034;43.226;27.932;2023-04-03T12:50:18;17.38;55.49
77839;SHT31;67034;43.226;27.932;2023-04-03T12:52:52;17.75;53.83
77839;SHT31;67034;43.226;27.932;2023-04-03T12:55:20;17.52;54.17
77839;SHT31;67034;43.226;27.932;2023-04-03T12:57:46;17.28;54.79
77839;SHT31;67034;43.226;27.932;2023-04-03T13:00:36;16.62;56.56
77839;SHT31;67034;43.226;27.932;2023-04-03T13:03:06;16.62;55.81
77839;SHT31;67034;43.226;27.932;2023-04-03T13:05:33;16.62;55.92
77839;SHT31;67034;43.226;27.932;2023-04-03T13:08:03;16.66;56.74
77839;SHT31;67034;43.226;27.932;2023-04-03T13:10:31;16.83;56.51
77839;SHT31;67034;43.226;27.932;2023-04-03T13:13:07;16.11;57.13
77839;SHT31;67034;43.226;27.932;2023-04-03T13:15:41;15.94;58.28
77839;SHT31;67034;43.226;27.932;2023-04-03T13:18:22;15.69;59.09
77839;SHT31;67034;43.226;27.932;2023-04-03T13:20:48;15.47;59.63
77839;SHT31;67034;43.226;27.932;2023-04-03T13:23:17;15.67;59.86
77839;SHT31;67034;43.226;27.932;2023-04-03T13:25:47;15.19;60.64
77839;SHT31;67034;43.226;27.932;2023-04-03T13:28:15;14.95;61.47
77839;SHT31;67034;43.226;27.932;2023-04-03T13:30:55;15.36;60.55
77839;SHT31;67034;43.226;27.932;2023-04-03T13:33:23;14.99;60.48
77839;SHT31;67034;43.226;27.932;2023-04-03T13:35:55;15.31;60.15
77839;SHT31;67034;43.226;27.932;2023-04-03T13:38:25;15.35;60.20
77839;SHT31;67034;43.226;27.932;2023-04-03T13:40:53;15.83;58.59
77839;SHT31;67034;43.226;27.932;2023-04-03T13:43:22;16.00;58.32
77839;SHT31;67034;43.226;27.932;2023-04-03T13:46:02;15.83;57.57
77839;SHT31;67034;43.226;27.932;2023-04-03T13:48:39;15.91;57.90
77839;SHT31;67034;43.226;27.932;2023-04-03T13:51:13;15.09;60.06
77839;SHT31;67034;43.226;27.932;2023-04-03T13:53:46;15.38;59.68
77839;SHT31;67034;43.226;27.932;2023-04-03T13:56:19;15.38;60.02
77839;SHT31;67034;43.226;27.932;2023-04-03T13:59:02;14.61;61.87
77839;SHT31;67034;43.226;27.932;2023-04-03T14:01:41;14.84;61.76
77839;SHT31;67034;43.226;27.932;2023-04-03T14:04:14;14.88;61.33
77839;SHT31;67034;43.226;27.932;2023-04-03T14:06:41;14.47;62.85
77839;SHT31;67034;43.226;27.932;2023-04-03T14:09:08;14.76;62.89
77839;SHT31;67034;43.226;27.932;2023-04-03T14:11:34;14.71;63.00
77839;SHT31;67034;43.226;27.932;2023-04-03T14:14:02;14.89;62.56
77839;SHT31;67034;43.226;27.932;2023-04-03T14:16:32;14.83;62.43
77839;SHT31;67034;43.226;27.932;2023-04-03T14:18:58;15.18;61.09
77839;SHT31;67034;43.226;27.932;2023-04-03T14:21:24;14.47;63.49
77839;SHT31;67034;43.226;27.932;2023-04-03T14:23:50;14.36;64.08
77839;SHT31;67034;43.226;27.932;2023-04-03T14:26:19;13.95;65.12
77839;SHT31;67034;43.226;27.932;2023-04-03T14:28:47;13.83;66.19
77839;SHT31;67034;43.226;27.932;2023-04-03T14:31:14;14.08;65.51
77839;SHT31;67034;43.226;27.932;2023-04-03T14:33:41;13.89;66.18
77839;SHT31;67034;43.226;27.932;2023-04-03T14:36:12;13.67;66.15
77839;SHT31;67034;43.226;27.932;2023-04-03T14:38:38;13.75;66.05
77839;SHT31;67034;43.226;27.932;2023-04-03T14:41:04;13.86;65.75
77839;SHT31;67034;43.226;27.932;2023-04-03T14:43:32;14.06;64.95
77839;SHT31;67034;43.226;27.932;2023-04-03T14:45:57;13.95;65.10
77839;SHT31;67034;43.226;27.932;2023-04-03T14:48:26;13.70;65.61
77839;SHT31;67034;43.226;27.932;2023-04-03T14:50:53;13.82;65.60
77839;SHT31;67034;43.226;27.932;2023-04-03T14:53:20;14.20;64.52
77839;SHT31;67034;43.226;27.932;2023-04-03T14:55:50;14.12;64.97
77839;SHT31;67034;43.226;27.932;2023-04-03T14:58:19;13.98;64.83
77839;SHT31;67034;43.226;27.932;2023-04-03T15:00:48;13.72;65.73
77839;SHT31;67034;43.226;27.932;2023-04-03T15:03:15;13.77;65.51
77839;SHT31;67034;43.226;27.932;2023-04-03T15:05:42;13.74;66.22
77839;SHT31;67034;43.226;27.932;2023-04-03T15:08:17;13.85;64.89
77839;SHT31;67034;43.226;27.932;2023-04-03T15:10:44;13.48;65.83
77839;SHT31;67034;43.226;27.932;2023-04-03T15:13:12;13.50;66.04
77839;SHT31;67034;43.226;27.932;2023-04-03T15:15:37;13.41;65.90
77839;SHT31;67034;43.226;27.932;2023-04-03T15:18:05;13.44;66.06
77839;SHT31;67034;43.226;27.932;2023-04-03T15:20:31;13.64;65.43
77839;SHT31;67034;43.226;27.932;2023-04-03T15:22:59;13.58;65.50
77839;SHT31;67034;43.226;27.932;2023-04-03T15:25:28;13.37;66.50
77839;SHT31;67034;43.226;27.932;2023-04-03T15:27:54;13.57;65.79
77839;SHT31;67034;43.226;27.932;2023-04-03T15:30:21;13.51;65.84
77839;SHT31;67034;43.226;27.932;2023-04-03T15:32:47;13.68;65.38
77839;SHT31;67034;43.226;27.932;2023-04-03T15:35:14;13.79;65.22
77839;SHT31;67034;43.226;27.932;2023-04-03T15:37:40;13.28;67.41
77839;SHT31;67034;43.226;27.932;2023-04-03T15:40:07;13.12;68.31
77839;SHT31;67034;43.226;27.932;2023-04-03T15:42:33;13.27;67.05
77839;SHT31;67034;43.226;27.932;2023-04-03T15:44:59;13.12;67.81
77839;SHT31;67034;43.226;27.932;2023-04-03T15:47:26;13.61;65.72